createdAt,value
2022-10-11T00:01:17.503Z,14.43
2022-10-11T00:03:43.966Z,14.73
2022-10-11T00:06:10.549Z,11.55
2022-10-11T00:11:07.054Z,13.80
2022-10-11T00:13:34.497Z,13.85
2022-10-11T00:16:01.582Z,10.73
2022-10-11T00:18:28.219Z,10.98
2022-10-11T00:23:31.583Z,14.88
2022-10-11T00:25:59.987Z,15.90
2022-10-11T00:28:26.907Z,14.13
2022-10-11T00:30:53.757Z,10.75
2022-10-11T00:33:20.411Z,10.85
2022-10-11T00:38:13.198Z,14.18
2022-10-11T00:40:40.027Z,13.27
2022-10-11T00:43:18.850Z,12.38
2022-10-11T00:45:57.394Z,16.38
2022-10-11T00:48:39.060Z,14.45
2022-10-11T00:51:33.269Z,14.23
2022-10-11T00:54:01.773Z,13.48
2022-10-11T00:56:34.109Z,16.50
2022-10-11T00:59:04.344Z,16.30
2022-10-11T01:01:31.045Z,14.13
2022-10-11T01:03:57.894Z,13.23
2022-10-11T01:06:24.653Z,12.98
2022-10-11T01:08:52.157Z,11.00
2022-10-11T01:11:23.176Z,12.23
2022-10-11T01:14:27.370Z,13.27
2022-10-11T01:17:00.714Z,11.57
2022-10-11T01:19:45.813Z,9.90
2022-10-11T01:22:38.564Z,9.25
2022-10-11T01:25:50.181Z,11.43
2022-10-11T01:28:53.696Z,13.27
2022-10-11T01:31:28.714Z,15.98
2022-10-11T01:34:04.057Z,10.60
2022-10-11T01:36:38.454Z,10.43
2022-10-11T01:39:31.416Z,11.82
2022-10-11T01:42:03.481Z,10.20
2022-10-11T01:44:30.768Z,18.27
2022-10-11T01:46:57.162Z,14.07
2022-10-11T01:49:23.829Z,14.68
2022-10-11T01:51:54.325Z,14.63
2022-10-11T01:55:08.228Z,19.95
2022-10-11T01:57:45.769Z,15.18
2022-10-11T02:00:23.195Z,8.93
2022-10-11T02:03:31.972Z,12.25
2022-10-11T02:08:43.582Z,12.38
2022-10-11T02:11:26.299Z,10.50
2022-10-11T02:14:20.477Z,14.13
2022-10-11T02:16:55.328Z,11.25
2022-10-11T02:19:26.233Z,15.02
2022-10-11T02:21:57.640Z,11.45
2022-10-11T02:24:33.517Z,15.35
2022-10-11T02:27:02.806Z,8.18
2022-10-11T02:29:32.596Z,14.77
2022-10-11T02:32:00.425Z,15.85
2022-10-11T02:34:37.929Z,16.88
2022-10-11T02:37:30.197Z,8.77
2022-10-11T02:40:06.464Z,11.45
2022-10-11T02:42:42.808Z,13.83
2022-10-11T02:45:16.849Z,12.70
2022-10-11T02:47:44.083Z,17.13
2022-10-11T02:50:12.476Z,14.20
2022-10-11T02:52:39.039Z,13.32
2022-10-11T02:57:32.799Z,15.55
2022-10-11T03:02:25.517Z,10.55
2022-10-11T03:04:51.933Z,11.63
2022-10-11T03:09:45.093Z,11.45
2022-10-11T03:12:11.489Z,10.40
2022-10-11T03:14:37.930Z,9.38
2022-10-11T03:19:51.683Z,13.07
2022-10-11T03:22:18.044Z,11.40
2022-10-11T03:24:44.436Z,13.15
2022-10-11T03:27:10.983Z,11.27
2022-10-11T03:32:04.024Z,10.23
2022-10-11T03:34:30.527Z,10.65
2022-10-11T03:36:57.038Z,14.02
2022-10-11T03:41:49.877Z,16.13
2022-10-11T03:44:16.426Z,12.93
2022-10-11T03:49:09.164Z,14.35
2022-10-11T03:51:36.393Z,15.02
2022-10-11T03:54:02.812Z,16.15
2022-10-11T03:56:29.216Z,10.63
2022-10-11T03:58:55.863Z,9.63
2022-10-11T04:01:22.411Z,10.75
2022-10-11T04:06:15.598Z,11.82
2022-10-11T04:08:42.062Z,11.52
2022-10-11T04:11:08.583Z,8.48
2022-10-11T04:16:01.556Z,15.38
2022-10-11T04:18:28.199Z,10.68
2022-10-11T04:20:54.622Z,11.85
2022-10-11T04:25:48.263Z,14.57
2022-10-11T04:28:14.819Z,11.95
2022-10-11T04:33:07.761Z,9.48
2022-10-11T04:35:34.235Z,11.57
2022-10-11T04:40:27.091Z,12.20
2022-10-11T04:42:53.747Z,9.05
2022-10-11T04:47:48.352Z,13.07
2022-10-11T04:50:15.422Z,10.13
2022-10-11T04:52:42.626Z,10.65
2022-10-11T04:55:09.732Z,11.15
2022-10-11T04:57:36.658Z,10.02
2022-10-11T05:00:04.668Z,14.90
2022-10-11T05:02:31.270Z,10.48
2022-10-11T05:07:24.281Z,13.15
2022-10-11T05:09:50.670Z,11.20
2022-10-11T05:14:43.552Z,11.95
2022-10-11T05:19:36.285Z,13.88
2022-10-11T05:22:02.702Z,9.63
2022-10-11T05:24:29.157Z,13.07
2022-10-11T05:26:58.647Z,8.85
2022-10-11T05:29:27.401Z,15.63
2022-10-11T05:31:54.005Z,23.27
2022-10-11T05:36:46.753Z,8.02
2022-10-11T05:39:13.388Z,9.75
2022-10-11T05:41:39.789Z,12.02
2022-10-11T05:44:08.317Z,11.18
2022-10-11T05:46:34.733Z,8.43
2022-10-11T05:49:01.126Z,13.10
2022-10-11T05:51:27.513Z,10.52
2022-10-11T05:53:53.980Z,14.05
2022-10-11T05:56:23.015Z,11.65
2022-10-11T05:58:50.182Z,12.10
2022-10-11T06:01:27.374Z,10.80
2022-10-11T06:03:54.061Z,11.25
2022-10-11T06:08:47.979Z,9.23
2022-10-11T06:11:20.582Z,11.35
2022-10-11T06:13:47.501Z,14.32
2022-10-11T06:16:14.680Z,12.15
2022-10-11T06:18:41.201Z,14.70
2022-10-11T06:21:07.958Z,13.93
2022-10-11T06:23:34.414Z,12.02
2022-10-11T06:26:05.868Z,14.45
2022-10-11T06:28:33.385Z,12.32
2022-10-11T06:31:00.254Z,10.63
2022-10-11T06:33:27.243Z,11.38
2022-10-11T06:36:06.383Z,10.98
2022-10-11T06:38:33.140Z,12.30
2022-10-11T06:43:35.368Z,11.65
2022-10-11T06:46:02.146Z,10.65
2022-10-11T06:48:29.261Z,13.32
2022-10-11T06:51:00.925Z,11.00
2022-10-11T06:53:28.084Z,13.90
2022-10-11T06:55:54.584Z,15.88
2022-10-11T07:00:48.518Z,10.68
2022-10-11T07:05:41.260Z,12.32
2022-10-11T07:08:07.758Z,11.20
2022-10-11T07:10:35.562Z,12.55
2022-10-11T07:13:02.015Z,9.50
2022-10-11T07:15:28.434Z,13.18
2022-10-11T07:17:54.834Z,12.13
2022-10-11T07:20:21.225Z,9.95
2022-10-11T07:22:48.086Z,9.75
2022-10-11T07:25:14.508Z,9.30
2022-10-11T07:30:07.888Z,16.48
2022-10-11T07:32:34.320Z,14.10
2022-10-11T07:35:03.446Z,13.45
2022-10-11T07:37:30.169Z,13.73
2022-10-11T07:42:23.043Z,12.07
2022-10-11T07:44:49.533Z,9.80
2022-10-11T07:49:42.258Z,11.82
2022-10-11T07:52:08.790Z,13.25
2022-10-11T07:57:01.864Z,12.48
2022-10-11T08:01:54.741Z,10.95
2022-10-11T08:06:52.539Z,13.25
2022-10-11T08:09:19.814Z,9.43
2022-10-11T08:11:46.272Z,10.75
2022-10-11T08:16:39.388Z,11.88
2022-10-11T08:19:06.937Z,14.52
2022-10-11T08:21:33.801Z,13.25
2022-10-11T08:24:02.181Z,17.95
2022-10-11T08:26:28.561Z,10.43
2022-10-11T08:28:55.277Z,17.17
2022-10-11T08:31:21.870Z,16.00
2022-10-11T08:33:48.576Z,15.80
2022-10-11T08:38:42.314Z,13.50
2022-10-11T08:41:24.057Z,17.50
2022-10-11T08:44:09.069Z,12.80
2022-10-11T08:46:37.914Z,20.48
2022-10-11T08:49:06.724Z,12.32
2022-10-11T08:51:50.637Z,15.40
2022-10-11T08:54:46.854Z,13.27
2022-10-11T08:57:19.968Z,14.50
2022-10-11T08:59:49.341Z,17.73
2022-10-11T09:03:08.609Z,18.38
2022-10-11T09:05:39.455Z,18.02
2022-10-11T09:08:19.352Z,19.17
2022-10-11T09:11:33.996Z,14.07
2022-10-11T09:14:46.717Z,14.40
2022-10-11T09:17:37.663Z,19.15
2022-10-11T09:20:24.461Z,19.65
2022-10-11T09:23:10.976Z,24.75
2022-10-11T09:25:53.095Z,20.00
2022-10-11T09:29:01.866Z,16.70
2022-10-11T09:31:29.631Z,19.23
2022-10-11T09:33:58.912Z,22.90
2022-10-11T09:36:44.583Z,18.45
2022-10-11T09:39:37.096Z,16.65
2022-10-11T09:42:07.671Z,22.88
2022-10-11T09:44:38.610Z,16.90
2022-10-11T09:47:06.660Z,17.88
2022-10-11T09:49:40.691Z,16.70
2022-10-11T09:52:15.163Z,19.08
2022-10-11T09:54:45.192Z,18.80
2022-10-11T09:57:23.035Z,17.80
2022-10-11T10:00:20.246Z,19.05
2022-10-11T10:02:58.354Z,17.33
2022-10-11T10:05:33.737Z,15.45
2022-10-11T10:08:09.502Z,14.70
2022-10-11T10:10:40.868Z,13.73
2022-10-11T10:13:22.480Z,17.08
2022-10-11T10:15:53.446Z,18.10
2022-10-11T10:18:29.146Z,18.38
2022-10-11T10:20:59.503Z,16.70
2022-10-11T10:23:32.646Z,20.35
2022-10-11T10:26:18.433Z,17.00
2022-10-11T10:29:09.328Z,24.45
2022-10-11T10:32:13.004Z,21.60
2022-10-11T10:34:39.817Z,19.13
2022-10-11T10:37:25.232Z,19.60
2022-10-11T10:40:10.457Z,21.35
2022-10-11T10:42:37.212Z,17.63
2022-10-11T10:45:11.190Z,21.63
2022-10-11T10:47:49.806Z,19.55
2022-10-11T10:50:45.884Z,21.80
2022-10-11T10:53:37.120Z,26.35
2022-10-11T10:56:12.697Z,26.17
2022-10-11T10:58:57.333Z,25.27
2022-10-11T11:01:27.553Z,29.67
2022-10-11T11:04:09.392Z,26.92
2022-10-11T11:06:44.845Z,27.75
2022-10-11T11:09:22.444Z,33.63
2022-10-11T11:11:57.913Z,29.67
2022-10-11T11:15:03.172Z,28.23
2022-10-11T11:17:51.067Z,27.65
2022-10-11T11:20:58.164Z,25.70
2022-10-11T11:23:40.561Z,33.38
2022-10-11T11:26:10.224Z,36.55
2022-10-11T11:29:17.330Z,36.30
2022-10-11T11:31:56.126Z,33.72
2022-10-11T11:34:38.268Z,26.33
2022-10-11T11:37:21.514Z,30.45
2022-10-11T11:39:54.040Z,31.30
2022-10-11T11:42:30.937Z,30.15
2022-10-11T11:45:05.413Z,28.73
2022-10-11T11:47:42.373Z,28.35
2022-10-11T11:50:08.998Z,29.73
2022-10-11T11:52:45.794Z,26.60
2022-10-11T11:55:30.405Z,28.67
2022-10-11T11:58:18.606Z,24.52
2022-10-11T12:01:15.556Z,20.45
2022-10-11T12:03:47.737Z,23.75
2022-10-11T12:06:14.476Z,26.48
2022-10-11T12:08:43.433Z,22.65
2022-10-11T12:11:22.446Z,29.13
2022-10-11T12:13:51.141Z,21.42
2022-10-11T12:16:18.141Z,22.30
2022-10-11T12:18:53.977Z,21.50
2022-10-11T12:21:38.711Z,19.73
2022-10-11T12:24:20.377Z,22.10
2022-10-11T12:26:55.217Z,23.83
2022-10-11T12:29:43.520Z,19.15
2022-10-11T12:32:28.415Z,20.55
2022-10-11T12:35:32.399Z,18.48
2022-10-11T12:38:16.840Z,18.80
2022-10-11T12:40:47.075Z,18.98
2022-10-11T12:43:16.511Z,19.45
2022-10-11T12:45:47.858Z,16.58
2022-10-11T12:49:07.307Z,20.42
2022-10-11T12:51:42.137Z,20.83
2022-10-11T12:54:37.395Z,17.08
2022-10-11T12:57:47.377Z,18.85
2022-10-11T13:00:29.579Z,20.95
2022-10-11T13:03:06.229Z,20.92
2022-10-11T13:05:43.216Z,17.25
2022-10-11T13:08:18.681Z,20.70
2022-10-11T13:10:47.191Z,21.33
2022-10-11T13:13:22.838Z,22.75
2022-10-11T13:15:52.240Z,17.83
2022-10-11T13:18:22.649Z,16.35
2022-10-11T13:20:49.442Z,17.02
2022-10-11T13:23:25.021Z,18.40
2022-10-11T13:25:53.519Z,19.17
2022-10-11T13:28:21.712Z,16.98
2022-10-11T13:30:52.320Z,19.58
2022-10-11T13:33:40.777Z,18.92
2022-10-11T13:36:14.957Z,20.38
2022-10-11T13:38:41.501Z,21.08
2022-10-11T13:43:37.713Z,20.42
2022-10-11T13:46:05.185Z,21.92
2022-10-11T13:48:41.850Z,18.08
2022-10-11T13:51:28.969Z,23.00
2022-10-11T13:54:05.003Z,22.80
2022-10-11T13:56:42.189Z,20.60
2022-10-11T13:59:18.490Z,17.92
2022-10-11T14:01:46.667Z,17.48
2022-10-11T14:04:27.279Z,18.05
2022-10-11T14:06:59.601Z,19.73
2022-10-11T14:09:33.880Z,17.10
2022-10-11T14:12:40.429Z,16.13
2022-10-11T14:15:24.484Z,19.40
2022-10-11T14:17:51.445Z,14.25
2022-10-11T14:20:24.182Z,16.92
2022-10-11T14:22:53.356Z,17.83
2022-10-11T14:25:22.831Z,15.25
2022-10-11T14:27:49.796Z,15.48
2022-10-11T14:30:27.671Z,13.00
2022-10-11T14:32:57.679Z,14.00
2022-10-11T14:35:32.197Z,19.63
2022-10-11T14:38:01.640Z,13.93
2022-10-11T14:40:30.824Z,17.05
2022-10-11T14:42:57.399Z,14.98
2022-10-11T14:45:24.515Z,17.38
2022-10-11T14:47:51.769Z,14.82
2022-10-11T14:50:26.629Z,16.80
2022-10-11T14:52:53.680Z,16.85
2022-10-11T14:55:21.769Z,13.98
2022-10-11T14:57:48.303Z,20.48
2022-10-11T15:02:50.845Z,17.50
2022-10-11T15:05:17.261Z,14.02
2022-10-11T15:07:44.144Z,16.35
2022-10-11T15:10:23.684Z,12.60
2022-10-11T15:12:51.972Z,15.98
2022-10-11T15:15:21.150Z,14.73
2022-10-11T15:17:53.742Z,16.27
2022-10-11T15:20:31.517Z,12.68
2022-10-11T15:23:00.344Z,13.95
2022-10-11T15:25:28.901Z,17.27
2022-10-11T15:27:56.045Z,16.30
2022-10-11T15:30:26.547Z,16.10
2022-10-11T15:32:54.070Z,14.93
2022-10-11T15:35:22.823Z,21.58
2022-10-11T15:37:53.006Z,17.27
2022-10-11T15:40:26.682Z,19.48
2022-10-11T15:42:54.500Z,12.05
2022-10-11T15:45:22.687Z,18.65
2022-10-11T15:47:50.275Z,23.08
2022-10-11T15:50:24.080Z,13.93
2022-10-11T15:52:51.693Z,22.05
2022-10-11T15:55:18.708Z,15.18
2022-10-11T15:57:45.298Z,15.80
2022-10-11T16:02:39.577Z,15.90
2022-10-11T16:05:06.191Z,13.70
2022-10-11T16:07:32.991Z,13.77
2022-10-11T16:09:59.466Z,13.90
2022-10-11T16:14:52.347Z,17.55
2022-10-11T16:17:19.142Z,16.88
2022-10-11T16:22:12.116Z,19.38
2022-10-11T16:27:05.326Z,22.03
2022-10-11T16:31:58.274Z,14.95
2022-10-11T16:34:24.680Z,16.23
2022-10-11T16:36:51.111Z,15.30
2022-10-11T16:39:18.495Z,23.73
2022-10-11T16:41:46.109Z,13.13
2022-10-11T16:44:14.569Z,16.42
2022-10-11T16:46:41.828Z,24.50
2022-10-11T16:49:08.372Z,21.50
2022-10-11T16:54:01.510Z,17.45
2022-10-11T16:56:29.161Z,17.27
2022-10-11T16:58:55.873Z,19.08
2022-10-11T17:01:23.240Z,18.15
2022-10-11T17:03:51.228Z,14.02
2022-10-11T17:06:19.371Z,18.20
2022-10-11T17:08:46.253Z,16.67
2022-10-11T17:11:13.049Z,13.55
2022-10-11T17:13:39.626Z,15.18
2022-10-11T17:18:33.198Z,23.35
2022-10-11T17:23:38.033Z,23.67
2022-10-11T17:26:11.381Z,19.38
2022-10-11T17:28:38.967Z,14.82
2022-10-11T17:31:07.912Z,17.77
2022-10-11T17:33:34.866Z,19.50
2022-10-11T17:36:02.047Z,25.13
2022-10-11T17:38:28.631Z,16.27
2022-10-11T17:43:25.285Z,13.10
2022-10-11T17:45:56.228Z,15.40
2022-10-11T17:48:22.706Z,16.92
2022-10-11T17:50:50.745Z,15.48
2022-10-11T17:53:17.868Z,18.42
2022-10-11T17:55:45.764Z,16.13
2022-10-11T17:58:12.760Z,16.67
2022-10-11T18:00:40.004Z,11.15
2022-10-11T18:03:07.197Z,16.15
2022-10-11T18:05:37.961Z,19.10
2022-10-11T18:08:04.673Z,18.45
2022-10-11T18:10:33.634Z,18.67
2022-10-11T18:13:04.340Z,21.27
2022-10-11T18:15:33.183Z,17.88
2022-10-11T18:17:59.814Z,20.25
2022-10-11T18:20:26.961Z,24.08
2022-10-11T18:22:54.163Z,15.85
2022-10-11T18:25:20.908Z,14.93
2022-10-11T18:27:47.717Z,16.55
2022-10-11T18:30:14.601Z,16.48
2022-10-11T18:32:41.229Z,19.58
2022-10-11T18:35:08.234Z,15.40
2022-10-11T18:37:34.830Z,16.92
2022-10-11T18:42:27.976Z,22.73
2022-10-11T18:47:21.772Z,23.02
2022-10-11T18:52:14.906Z,18.02
2022-10-11T18:54:41.444Z,18.40
2022-10-11T18:59:34.803Z,25.42
2022-10-11T19:04:28.755Z,15.10
2022-10-11T19:06:55.385Z,18.75
2022-10-11T19:11:54.416Z,23.45
2022-10-11T19:14:25.733Z,20.10
2022-10-11T19:16:53.108Z,20.50
2022-10-11T19:19:22.615Z,21.48
2022-10-11T19:21:49.645Z,21.83
2022-10-11T19:24:21.957Z,25.60
2022-10-11T19:26:51.565Z,13.30
2022-10-11T19:29:21.116Z,14.75
2022-10-11T19:31:54.625Z,16.95
2022-10-11T19:34:22.236Z,19.48
2022-10-11T19:36:53.380Z,17.67
2022-10-11T19:39:23.095Z,23.70
2022-10-11T19:41:50.172Z,15.32
2022-10-11T19:44:17.088Z,23.33
2022-10-11T19:46:51.666Z,15.60
2022-10-11T19:49:22.820Z,21.73
2022-10-11T19:51:50.548Z,18.42
2022-10-11T19:54:18.349Z,16.02
2022-10-11T19:56:45.362Z,19.63
2022-10-11T19:59:12.999Z,17.15
2022-10-11T20:01:41.449Z,22.48
2022-10-11T20:04:27.530Z,16.42
2022-10-11T20:06:58.967Z,22.67
2022-10-11T20:09:30.292Z,23.83
2022-10-11T20:11:57.397Z,15.73
2022-10-11T20:14:24.239Z,22.15
2022-10-11T20:16:51.450Z,23.30
2022-10-11T20:19:18.766Z,21.95
2022-10-11T20:21:45.483Z,20.25
2022-10-11T20:24:12.055Z,18.85
2022-10-11T20:29:06.529Z,22.02
2022-10-11T20:31:40.791Z,21.17
2022-10-11T20:34:07.955Z,17.50
2022-10-11T20:36:36.007Z,26.27
2022-10-11T20:39:04.986Z,20.50
2022-10-11T20:41:40.023Z,22.88
2022-10-11T20:44:08.937Z,24.73
2022-10-11T20:46:38.110Z,21.02
2022-10-11T20:49:07.852Z,21.80
2022-10-11T20:51:36.840Z,20.88
2022-10-11T20:54:04.948Z,22.20
2022-10-11T20:56:31.532Z,23.95
2022-10-11T20:58:58.747Z,23.25
2022-10-11T21:01:28.486Z,24.10
2022-10-11T21:03:57.824Z,28.38
2022-10-11T21:06:24.641Z,22.00
2022-10-11T21:08:51.075Z,21.85
2022-10-11T21:11:17.462Z,22.15
2022-10-11T21:13:43.997Z,21.45
2022-10-11T21:18:41.573Z,26.88
2022-10-11T21:21:10.765Z,24.08
2022-10-11T21:23:37.559Z,23.60
2022-10-11T21:26:08.198Z,19.05
2022-10-11T21:28:35.217Z,28.63
2022-10-11T21:31:12.811Z,25.10
2022-10-11T21:33:40.587Z,24.48
2022-10-11T21:36:09.689Z,27.60
2022-10-11T21:38:37.102Z,21.40
2022-10-11T21:41:05.757Z,20.98
2022-10-11T21:43:35.053Z,28.42
2022-10-11T21:46:13.827Z,23.33
2022-10-11T21:48:40.828Z,22.40
2022-10-11T21:53:45.802Z,26.17
2022-10-11T21:56:12.226Z,25.75
2022-10-11T21:58:38.629Z,25.52
2022-10-11T22:01:05.905Z,22.30
2022-10-11T22:03:32.414Z,25.30
2022-10-11T22:06:01.999Z,24.75
2022-10-11T22:08:28.506Z,22.48
2022-10-11T22:10:57.503Z,25.65
2022-10-11T22:13:25.268Z,24.25
2022-10-11T22:15:51.842Z,23.98
2022-10-11T22:20:45.343Z,21.58
2022-10-11T22:23:11.933Z,23.77
2022-10-11T22:28:06.746Z,23.58
2022-10-11T22:30:34.025Z,24.90
2022-10-11T22:33:00.746Z,26.90
2022-10-11T22:35:27.334Z,23.92
2022-10-11T22:40:20.423Z,22.65
2022-10-11T22:42:46.861Z,25.67
2022-10-11T22:45:13.333Z,25.35
2022-10-11T22:50:06.352Z,25.08
2022-10-11T22:52:32.752Z,25.45
2022-10-11T22:54:59.138Z,20.00
2022-10-11T22:57:25.568Z,24.77
2022-10-11T22:59:51.939Z,24.05
2022-10-11T23:02:18.351Z,26.38
2022-10-11T23:04:45.053Z,26.40
2022-10-11T23:07:11.456Z,21.52
2022-10-11T23:09:38.010Z,23.75
2022-10-11T23:14:30.887Z,26.02
2022-10-11T23:16:57.289Z,20.33
2022-10-11T23:19:23.685Z,23.55
2022-10-11T23:21:50.109Z,21.35
2022-10-11T23:24:16.780Z,25.42
2022-10-11T23:26:43.290Z,20.20
2022-10-11T23:29:09.681Z,22.20
2022-10-11T23:31:36.130Z,22.08
2022-10-11T23:34:02.525Z,23.48
2022-10-11T23:36:29.065Z,18.45
2022-10-11T23:38:57.703Z,18.98
2022-10-11T23:41:26.309Z,21.55
2022-10-11T23:43:53.204Z,24.73
2022-10-11T23:46:20.073Z,22.15
2022-10-11T23:48:46.896Z,23.60
2022-10-11T23:51:13.487Z,22.55
2022-10-11T23:56:07.605Z,23.83
2022-10-11T23:58:34.060Z,19.92
